createdAt,value
2023-05-14T00:01:47.512Z,8.50
2023-05-14T00:04:15.457Z,8.60
2023-05-14T00:06:43.452Z,8.80
2023-05-14T00:09:13.050Z,8.80
2023-05-14T00:11:41.038Z,8.80
2023-05-14T00:14:09.105Z,8.70
2023-05-14T00:16:37.059Z,8.60
2023-05-14T00:19:05.125Z,8.70
2023-05-14T00:21:33.567Z,8.60
2023-05-14T00:24:01.496Z,8.80
2023-05-14T00:26:30.786Z,8.60
2023-05-14T00:28:58.805Z,8.60
2023-05-14T00:31:26.859Z,8.70
2023-05-14T00:33:54.847Z,8.80
2023-05-14T00:36:22.797Z,8.70
2023-05-14T00:38:51.073Z,8.50
2023-05-14T00:41:19.051Z,8.40
2023-05-14T00:43:48.380Z,8.30
2023-05-14T00:46:17.400Z,8.50
2023-05-14T00:48:46.145Z,8.50
2023-05-14T00:51:14.244Z,8.40
2023-05-14T00:53:42.678Z,8.50
2023-05-14T00:56:11.568Z,8.60
2023-05-14T00:58:39.584Z,8.50
2023-05-14T01:01:09.997Z,8.60
2023-05-14T01:03:38.241Z,8.50
2023-05-14T01:06:13.300Z,8.50
2023-05-14T01:08:51.520Z,8.70
2023-05-14T01:11:25.468Z,8.90
2023-05-14T01:14:02.631Z,8.90
2023-05-14T01:16:34.323Z,9.00
2023-05-14T01:19:03.721Z,9.00
2023-05-14T01:21:40.962Z,9.00
2023-05-14T01:24:09.481Z,9.10
2023-05-14T01:26:38.131Z,9.00
2023-05-14T01:29:14.873Z,9.00
2023-05-14T01:31:46.570Z,9.00
2023-05-14T01:34:15.693Z,9.00
2023-05-14T01:36:45.810Z,9.10
2023-05-14T01:39:15.182Z,9.00
2023-05-14T01:41:44.738Z,8.90
2023-05-14T01:44:12.953Z,9.00
2023-05-14T01:46:41.090Z,9.00
2023-05-14T01:49:09.175Z,8.90
2023-05-14T01:51:37.731Z,8.90
2023-05-14T01:54:07.111Z,9.00
2023-05-14T01:56:35.064Z,9.00
2023-05-14T01:59:03.006Z,9.10
2023-05-14T02:01:31.718Z,9.00
2023-05-14T02:04:00.027Z,9.00
2023-05-14T02:06:28.061Z,9.00
2023-05-14T02:08:55.991Z,8.90
2023-05-14T02:11:26.172Z,9.00
2023-05-14T02:13:54.092Z,8.90
2023-05-14T02:16:22.038Z,8.80
2023-05-14T02:18:50.110Z,8.90
2023-05-14T02:21:18.134Z,8.80
2023-05-14T02:23:46.065Z,8.70
2023-05-14T02:26:14.012Z,8.60
2023-05-14T02:28:43.294Z,8.60
2023-05-14T02:31:11.219Z,8.70
2023-05-14T02:33:39.253Z,8.60
2023-05-14T02:36:07.586Z,8.70
2023-05-14T02:38:35.548Z,8.70
2023-05-14T02:41:03.758Z,8.60
2023-05-14T02:43:31.766Z,8.50
2023-05-14T02:46:01.077Z,8.70
2023-05-14T02:48:29.407Z,8.70
2023-05-14T02:50:57.362Z,8.60
2023-05-14T02:53:25.291Z,8.50
2023-05-14T02:55:53.269Z,8.70
2023-05-14T02:58:25.755Z,8.80
2023-05-14T03:00:56.983Z,8.90
2023-05-14T03:03:26.907Z,8.90
2023-05-14T03:05:55.497Z,8.90
2023-05-14T03:08:23.443Z,8.80
2023-05-14T03:10:51.412Z,8.80
2023-05-14T03:13:20.660Z,8.90
2023-05-14T03:15:48.839Z,8.80
2023-05-14T03:18:16.853Z,8.80
2023-05-14T03:20:46.158Z,8.80
2023-05-14T03:23:14.814Z,8.70
2023-05-14T03:25:42.952Z,8.80
2023-05-14T03:28:10.888Z,8.90
2023-05-14T03:30:38.901Z,8.90
2023-05-14T03:33:07.037Z,8.90
2023-05-14T03:35:34.993Z,8.80
2023-05-14T03:38:04.390Z,8.70
2023-05-14T03:40:32.383Z,8.70
2023-05-14T03:43:00.361Z,8.70
2023-05-14T03:45:30.349Z,8.60
2023-05-14T03:47:58.486Z,8.70
2023-05-14T03:50:26.589Z,8.60
2023-05-14T03:52:54.989Z,8.50
2023-05-14T03:55:24.579Z,8.50
2023-05-14T03:57:52.540Z,8.50
2023-05-14T04:00:21.206Z,8.50
2023-05-14T04:02:49.494Z,8.50
2023-05-14T04:05:17.721Z,8.50
2023-05-14T04:07:46.201Z,8.30
2023-05-14T04:10:14.663Z,8.30
2023-05-14T04:12:44.022Z,8.30
2023-05-14T04:15:12.553Z,8.30
2023-05-14T04:17:40.609Z,8.40
2023-05-14T04:20:09.928Z,8.50
2023-05-14T04:22:37.953Z,8.60
2023-05-14T04:25:06.657Z,8.70
2023-05-14T04:27:34.992Z,8.80
2023-05-14T04:30:04.865Z,8.80
2023-05-14T04:32:33.062Z,8.90
2023-05-14T04:35:01.068Z,8.90
2023-05-14T04:37:29.030Z,8.90
2023-05-14T04:39:57.056Z,8.90
2023-05-14T04:42:25.517Z,8.60
2023-05-14T04:44:53.494Z,8.60
2023-05-14T04:47:23.303Z,8.80
2023-05-14T04:49:51.280Z,8.90
2023-05-14T04:52:19.275Z,8.90
2023-05-14T04:54:47.356Z,9.10
2023-05-14T04:57:15.417Z,9.00
2023-05-14T04:59:43.599Z,8.90
2023-05-14T05:02:11.676Z,8.90
2023-05-14T05:04:41.243Z,9.00
2023-05-14T05:07:09.228Z,9.10
2023-05-14T05:09:37.192Z,9.10
2023-05-14T05:12:05.693Z,9.20
2023-05-14T05:14:33.862Z,9.20
2023-05-14T05:17:01.824Z,9.30
2023-05-14T05:19:43.282Z,9.30
2023-05-14T05:22:13.548Z,9.30
2023-05-14T05:24:41.519Z,9.30
2023-05-14T05:27:09.519Z,9.00
2023-05-14T05:29:38.110Z,9.10
2023-05-14T05:32:07.079Z,9.10
2023-05-14T05:34:35.713Z,9.20
2023-05-14T05:37:03.738Z,9.10
2023-05-14T05:39:34.882Z,9.00
2023-05-14T05:42:03.550Z,9.00
2023-05-14T05:44:31.743Z,9.10
2023-05-14T05:46:59.891Z,9.10
2023-05-14T05:49:27.876Z,9.00
2023-05-14T05:51:55.844Z,9.00
2023-05-14T05:54:25.365Z,9.10
2023-05-14T05:56:54.685Z,9.20
2023-05-14T05:59:22.696Z,9.30
2023-05-14T06:01:50.662Z,9.30
2023-05-14T06:04:18.657Z,9.30
2023-05-14T06:06:46.636Z,9.30
2023-05-14T06:09:14.608Z,9.40
2023-05-14T06:11:42.541Z,9.30
2023-05-14T06:14:11.863Z,9.30
2023-05-14T06:16:39.856Z,9.40
2023-05-14T06:19:08.408Z,9.50
2023-05-14T06:21:36.464Z,9.40
2023-05-14T06:24:04.521Z,9.50
2023-05-14T06:26:32.484Z,9.60
2023-05-14T06:29:00.392Z,9.60
2023-05-14T06:31:29.836Z,9.40
2023-05-14T06:33:57.867Z,9.40
2023-05-14T06:36:25.844Z,9.30
2023-05-14T06:38:53.821Z,9.40
2023-05-14T06:41:22.651Z,9.30
2023-05-14T06:43:50.787Z,9.30
2023-05-14T06:46:18.749Z,9.20
2023-05-14T06:48:48.118Z,9.40
2023-05-14T06:51:16.196Z,9.40
2023-05-14T06:53:44.155Z,9.30
2023-05-14T06:56:12.897Z,9.40
2023-05-14T06:58:41.031Z,9.50
2023-05-14T07:01:09.045Z,9.60
2023-05-14T07:03:37.194Z,9.70
2023-05-14T07:06:07.690Z,9.70
2023-05-14T07:08:36.029Z,9.70
2023-05-14T07:11:04.191Z,9.70
2023-05-14T07:13:32.208Z,9.80
2023-05-14T07:16:00.451Z,9.80
2023-05-14T07:18:28.818Z,9.90
2023-05-14T07:20:56.838Z,9.80
2023-05-14T07:23:26.173Z,9.80
2023-05-14T07:25:54.114Z,9.90
2023-05-14T07:28:22.196Z,9.90
2023-05-14T07:30:50.162Z,9.90
2023-05-14T07:33:18.138Z,10.00
2023-05-14T07:35:46.284Z,10.00
2023-05-14T07:38:14.272Z,9.90
2023-05-14T07:40:43.891Z,9.90
2023-05-14T07:43:12.373Z,9.80
2023-05-14T07:45:40.416Z,9.70
2023-05-14T07:48:08.555Z,9.60
2023-05-14T07:50:38.389Z,9.50
2023-05-14T07:53:06.401Z,9.50
2023-05-14T07:55:34.477Z,9.60
2023-05-14T07:58:03.992Z,9.60
2023-05-14T08:00:32.115Z,9.80
2023-05-14T08:03:00.282Z,9.90
2023-05-14T08:05:28.461Z,10.00
2023-05-14T08:07:56.557Z,9.90
2023-05-14T08:10:24.899Z,10.00
2023-05-14T08:12:53.088Z,10.00
2023-05-14T08:15:22.417Z,9.90
2023-05-14T08:17:50.423Z,9.90
2023-05-14T08:20:19.984Z,10.00
2023-05-14T08:22:47.960Z,10.10
2023-05-14T08:25:15.989Z,10.10
2023-05-14T08:27:43.909Z,10.10
2023-05-14T08:30:12.598Z,10.10
2023-05-14T08:32:42.403Z,10.10
2023-05-14T08:35:10.875Z,10.20
2023-05-14T08:37:38.860Z,10.20
2023-05-14T08:40:08.641Z,10.10
2023-05-14T08:42:40.409Z,10.10
2023-05-14T08:45:14.937Z,10.20
2023-05-14T08:47:48.344Z,10.10
2023-05-14T08:50:17.076Z,10.10
2023-05-14T08:52:45.525Z,10.20
2023-05-14T08:55:14.085Z,10.20
2023-05-14T08:57:42.130Z,10.20
2023-05-14T09:00:12.194Z,10.30
2023-05-14T09:02:41.761Z,10.30
2023-05-14T09:05:12.360Z,10.10
2023-05-14T09:07:40.837Z,10.30
2023-05-14T09:10:10.435Z,10.20
2023-05-14T09:12:38.406Z,10.20
2023-05-14T09:15:08.046Z,10.20
2023-05-14T09:17:36.104Z,10.20
2023-05-14T09:20:05.012Z,10.20
2023-05-14T09:22:35.950Z,10.10
2023-05-14T09:25:06.136Z,10.00
2023-05-14T09:27:34.725Z,10.00
2023-05-14T09:30:10.471Z,10.00
2023-05-14T09:32:40.094Z,9.70
2023-05-14T09:35:12.924Z,9.60
2023-05-14T09:37:44.664Z,9.60
2023-05-14T09:40:13.420Z,9.70
2023-05-14T09:42:41.593Z,9.70
2023-05-14T09:45:10.575Z,9.60
2023-05-14T09:47:39.676Z,9.50
2023-05-14T09:50:09.115Z,9.50
2023-05-14T09:52:37.267Z,9.50
2023-05-14T09:55:07.869Z,9.70
2023-05-14T09:57:35.887Z,9.80
2023-05-14T10:00:04.127Z,9.90
2023-05-14T10:02:38.095Z,9.90
2023-05-14T10:05:08.249Z,9.50
2023-05-14T10:07:41.913Z,9.70
2023-05-14T10:10:16.378Z,9.90
2023-05-14T10:12:49.679Z,9.90
2023-05-14T10:15:24.891Z,10.00
2023-05-14T10:17:57.344Z,10.10
2023-05-14T10:20:27.885Z,10.20
2023-05-14T10:22:56.449Z,10.20
2023-05-14T10:25:26.323Z,10.20
2023-05-14T10:27:54.963Z,10.10
2023-05-14T10:30:24.301Z,10.20
2023-05-14T10:33:08.032Z,10.20
2023-05-14T10:36:02.034Z,10.00
2023-05-14T10:38:30.735Z,10.00
2023-05-14T10:41:04.484Z,10.10
2023-05-14T10:43:37.410Z,10.00
2023-05-14T10:46:06.658Z,10.00
2023-05-14T10:48:35.191Z,10.00
2023-05-14T10:51:03.573Z,10.10
2023-05-14T10:53:36.272Z,10.10
2023-05-14T10:56:07.955Z,10.10
2023-05-14T10:58:39.866Z,9.80
2023-05-14T11:01:09.044Z,9.60
2023-05-14T11:03:42.178Z,9.70
2023-05-14T11:06:11.184Z,9.80
2023-05-14T11:08:39.962Z,10.00
2023-05-14T11:11:10.404Z,9.90
2023-05-14T11:13:38.584Z,10.00
2023-05-14T11:18:38.925Z,10.00
2023-05-14T11:21:07.177Z,9.90
2023-05-14T11:23:35.165Z,9.80
2023-05-14T11:26:03.530Z,9.90
2023-05-14T11:28:33.207Z,9.90
2023-05-14T11:31:01.140Z,9.90
2023-05-14T11:33:30.387Z,9.90
2023-05-14T11:35:58.421Z,9.90
2023-05-14T11:38:26.496Z,9.50
2023-05-14T11:40:55.071Z,9.40
2023-05-14T11:43:23.813Z,9.60
2023-05-14T11:45:54.197Z,9.70
2023-05-14T11:48:23.355Z,9.60
2023-05-14T11:50:53.231Z,9.60
2023-05-14T11:53:21.630Z,9.60
2023-05-14T11:55:49.748Z,9.70
2023-05-14T11:58:19.153Z,9.60
2023-05-14T12:00:47.482Z,9.50
2023-05-14T12:03:17.100Z,9.60
2023-05-14T12:05:57.022Z,9.30
2023-05-14T12:08:28.189Z,9.20
2023-05-14T12:10:56.963Z,9.20
2023-05-14T12:13:27.569Z,9.20
2023-05-14T12:15:57.164Z,9.30
2023-05-14T12:18:29.278Z,9.40
2023-05-14T12:20:57.774Z,9.30
2023-05-14T12:23:30.267Z,9.40
2023-05-14T12:26:03.677Z,9.60
2023-05-14T12:28:32.144Z,9.60
2023-05-14T12:31:01.360Z,9.70
2023-05-14T12:33:30.772Z,9.70
2023-05-14T12:36:07.427Z,9.70
2023-05-14T12:38:42.036Z,9.60
2023-05-14T12:41:10.355Z,9.60
2023-05-14T12:43:38.400Z,9.40
2023-05-14T12:46:06.552Z,9.50
2023-05-14T12:48:35.892Z,9.60
2023-05-14T12:51:03.832Z,9.60
2023-05-14T12:53:31.969Z,9.50
2023-05-14T12:56:00.018Z,9.40
2023-05-14T12:58:27.968Z,9.30
2023-05-14T13:00:56.389Z,9.40
2023-05-14T13:03:24.884Z,9.40
2023-05-14T13:05:55.148Z,9.30
2023-05-14T13:08:25.208Z,9.40
2023-05-14T13:10:53.331Z,9.30
2023-05-14T13:13:21.564Z,9.30
2023-05-14T13:15:49.824Z,9.40
2023-05-14T13:18:19.907Z,9.40
2023-05-14T13:20:48.611Z,9.40
2023-05-14T13:23:17.924Z,9.40
2023-05-14T13:25:47.937Z,9.50
2023-05-14T13:28:17.253Z,9.40
2023-05-14T13:31:06.312Z,9.50
2023-05-14T13:33:35.797Z,9.40
2023-05-14T13:36:04.023Z,9.40
2023-05-14T13:38:33.412Z,9.40
2023-05-14T13:41:02.977Z,9.50
2023-05-14T13:43:31.676Z,9.50
2023-05-14T13:46:00.002Z,9.60
2023-05-14T13:48:28.667Z,9.70
2023-05-14T13:50:56.701Z,9.80
2023-05-14T13:53:26.018Z,9.80
2023-05-14T13:55:58.293Z,9.80
2023-05-14T13:58:26.828Z,9.90
2023-05-14T14:00:55.175Z,10.00
2023-05-14T14:03:23.776Z,10.00
2023-05-14T14:05:52.204Z,9.90
2023-05-14T14:08:24.082Z,9.90
2023-05-14T14:10:55.058Z,10.00
2023-05-14T14:13:24.585Z,9.90
2023-05-14T14:15:52.793Z,9.90
2023-05-14T14:18:20.960Z,9.90
2023-05-14T14:20:48.957Z,10.00
2023-05-14T14:23:16.927Z,10.00
2023-05-14T14:25:44.946Z,10.00
2023-05-14T14:28:12.919Z,10.00
2023-05-14T14:30:42.368Z,10.00
2023-05-14T14:33:10.335Z,9.90
2023-05-14T14:35:38.508Z,9.90
2023-05-14T14:38:06.504Z,9.90
2023-05-14T14:40:34.779Z,9.90
2023-05-14T14:43:03.034Z,9.80
2023-05-14T14:45:31.140Z,9.70
2023-05-14T14:48:25.230Z,9.70
2023-05-14T14:50:53.596Z,9.80
2023-05-14T14:53:22.023Z,9.80
2023-05-14T14:55:50.518Z,9.80
2023-05-14T14:58:19.488Z,9.80
2023-05-14T15:00:47.827Z,9.70
2023-05-14T15:03:16.620Z,9.70
2023-05-14T15:05:46.993Z,9.70
2023-05-14T15:08:15.433Z,9.60
2023-05-14T15:10:43.407Z,9.70
2023-05-14T15:13:11.907Z,9.70
2023-05-14T15:15:39.867Z,9.80
2023-05-14T15:18:07.865Z,9.80
2023-05-14T15:20:36.120Z,9.70
2023-05-14T15:23:05.486Z,9.80
2023-05-14T15:25:33.457Z,9.70
2023-05-14T15:28:01.429Z,9.70
2023-05-14T15:30:29.468Z,9.60
2023-05-14T15:32:57.822Z,9.50
2023-05-14T15:35:26.133Z,9.60
2023-05-14T15:37:56.859Z,9.60
2023-05-14T15:40:27.569Z,9.70
2023-05-14T15:42:55.732Z,9.70
2023-05-14T15:45:24.117Z,9.70
2023-05-14T15:47:52.160Z,9.70
2023-05-14T15:50:20.510Z,9.70
2023-05-14T15:52:49.775Z,9.70
2023-05-14T15:55:17.914Z,9.70
2023-05-14T15:57:47.328Z,9.70
2023-05-14T16:00:16.302Z,9.70
2023-05-14T16:02:44.391Z,9.60
2023-05-14T16:05:12.562Z,9.60
2023-05-14T16:07:40.613Z,9.60
2023-05-14T16:10:09.413Z,9.60
2023-05-14T16:12:37.482Z,9.60
2023-05-14T16:15:08.105Z,9.60
2023-05-14T16:17:36.270Z,9.50
2023-05-14T16:20:05.709Z,9.50
2023-05-14T16:22:34.678Z,9.50
2023-05-14T16:25:04.401Z,9.50
2023-05-14T16:27:32.451Z,9.50
2023-05-14T16:30:00.432Z,9.50
2023-05-14T16:32:29.760Z,9.50
2023-05-14T16:34:57.754Z,9.50
2023-05-14T16:37:25.766Z,9.50
2023-05-14T16:39:53.716Z,9.40
2023-05-14T16:42:21.793Z,9.40
2023-05-14T16:44:49.737Z,9.40
2023-05-14T16:47:17.712Z,9.40
2023-05-14T16:49:47.008Z,9.40
2023-05-14T16:52:14.956Z,9.40
2023-05-14T16:54:42.982Z,9.30
2023-05-14T16:57:11.044Z,9.30
2023-05-14T16:59:38.986Z,9.20
2023-05-14T17:02:07.818Z,9.10
2023-05-14T17:04:38.673Z,9.10
2023-05-14T17:07:08.350Z,9.20
2023-05-14T17:09:36.399Z,9.20
2023-05-14T17:12:04.912Z,9.20
2023-05-14T17:14:32.879Z,9.10
2023-05-14T17:17:00.832Z,9.10
2023-05-14T17:19:29.166Z,8.90
2023-05-14T17:21:57.268Z,9.00
2023-05-14T17:24:26.599Z,8.90
2023-05-14T17:26:54.745Z,9.10
2023-05-14T17:29:22.853Z,9.00
2023-05-14T17:31:51.395Z,9.10
2023-05-14T17:34:19.505Z,9.20
2023-05-14T17:36:47.609Z,9.20
2023-05-14T17:39:15.931Z,9.30
2023-05-14T17:41:46.008Z,9.30
2023-05-14T17:44:14.070Z,9.20
2023-05-14T17:46:42.467Z,9.10
2023-05-14T17:49:12.063Z,9.00
2023-05-14T17:51:40.066Z,9.00
2023-05-14T17:54:08.120Z,9.00
2023-05-14T17:56:36.948Z,9.00
2023-05-14T17:59:07.047Z,8.80
2023-05-14T18:01:35.735Z,8.80
2023-05-14T18:04:04.044Z,8.90
2023-05-14T18:06:32.220Z,8.90
2023-05-14T18:09:00.175Z,8.80
2023-05-14T18:11:32.653Z,8.70
2023-05-14T18:14:00.869Z,8.70
2023-05-14T18:16:31.845Z,8.70
2023-05-14T18:19:00.739Z,8.60
2023-05-14T18:21:28.747Z,8.70
2023-05-14T18:23:56.713Z,8.60
2023-05-14T18:26:24.735Z,8.60
2023-05-14T18:28:53.028Z,8.50
2023-05-14T18:31:21.119Z,8.50
2023-05-14T18:33:50.829Z,8.50
2023-05-14T18:36:19.773Z,8.50
2023-05-14T18:38:47.895Z,8.60
2023-05-14T18:41:15.920Z,8.40
2023-05-14T18:43:44.079Z,8.50
2023-05-14T18:46:12.306Z,8.60
2023-05-14T18:48:40.849Z,8.50
2023-05-14T18:51:11.276Z,8.50
2023-05-14T18:53:39.563Z,8.50
2023-05-14T18:56:07.649Z,8.50
2023-05-14T18:58:35.860Z,8.50
2023-05-14T19:01:03.904Z,8.40
2023-05-14T19:03:32.012Z,8.50
2023-05-14T19:06:00.209Z,8.40
2023-05-14T19:08:29.961Z,8.50
2023-05-14T19:10:57.922Z,8.40
2023-05-14T19:13:28.400Z,8.40
2023-05-14T19:15:56.544Z,8.50
2023-05-14T19:18:24.673Z,8.60
2023-05-14T19:20:52.671Z,8.70
2023-05-14T19:23:20.684Z,8.80
2023-05-14T19:25:50.115Z,8.70
2023-05-14T19:28:19.853Z,8.70
2023-05-14T19:30:47.996Z,8.80
2023-05-14T19:33:16.072Z,8.80
2023-05-14T19:35:44.097Z,8.80
2023-05-14T19:38:12.161Z,8.70
2023-05-14T19:40:40.098Z,8.70
2023-05-14T19:43:10.168Z,8.70
2023-05-14T19:45:39.218Z,8.50
2023-05-14T19:48:07.489Z,8.60
2023-05-14T19:50:36.784Z,8.60
2023-05-14T19:53:05.032Z,8.70
2023-05-14T19:55:33.338Z,8.60
2023-05-14T19:58:01.291Z,8.60
2023-05-14T20:00:30.850Z,8.50
2023-05-14T20:02:59.490Z,8.50
2023-05-14T20:05:27.831Z,8.50
2023-05-14T20:07:55.920Z,8.50
2023-05-14T20:10:24.256Z,8.60
2023-05-14T20:12:52.313Z,8.50
2023-05-14T20:15:20.802Z,8.60
2023-05-14T20:17:50.140Z,8.50
2023-05-14T20:20:18.193Z,8.40
2023-05-14T20:22:46.168Z,8.30
2023-05-14T20:25:14.227Z,8.50
2023-05-14T20:27:42.239Z,8.40
2023-05-14T20:30:11.056Z,8.50
2023-05-14T20:32:39.145Z,8.50
2023-05-14T20:35:09.276Z,8.60
2023-05-14T20:37:37.854Z,8.60
2023-05-14T20:40:09.737Z,8.60
2023-05-14T20:42:37.850Z,8.60
2023-05-14T20:45:07.014Z,8.50
2023-05-14T20:47:35.620Z,8.40
2023-05-14T20:50:04.609Z,8.30
2023-05-14T20:52:33.961Z,8.30
2023-05-14T20:55:02.403Z,8.50
2023-05-14T20:57:30.547Z,8.40
2023-05-14T20:59:58.826Z,8.30
2023-05-14T21:02:27.036Z,8.30
2023-05-14T21:04:55.086Z,8.30
2023-05-14T21:07:23.094Z,8.40
2023-05-14T21:09:52.839Z,8.40
2023-05-14T21:12:20.857Z,8.10
2023-05-14T21:14:48.779Z,8.20
2023-05-14T21:17:16.802Z,8.10
2023-05-14T21:19:44.704Z,8.10
2023-05-14T21:22:13.400Z,8.20
2023-05-14T21:24:41.403Z,8.10
2023-05-14T21:27:10.841Z,8.20
2023-05-14T21:29:39.572Z,8.10
2023-05-14T21:32:08.275Z,8.00
2023-05-14T21:34:36.308Z,8.20
2023-05-14T21:37:04.511Z,8.30
2023-05-14T21:39:32.467Z,8.30
2023-05-14T21:42:00.400Z,8.30
2023-05-14T21:44:29.743Z,8.30
2023-05-14T21:46:57.740Z,8.40
2023-05-14T21:49:25.743Z,8.40
2023-05-14T21:51:54.570Z,8.30
2023-05-14T21:54:22.629Z,8.40
2023-05-14T21:56:50.954Z,8.40
2023-05-14T21:59:18.962Z,8.40
2023-05-14T22:02:05.630Z,8.30
2023-05-14T22:04:35.281Z,8.30
2023-05-14T22:07:03.508Z,8.20
2023-05-14T22:09:31.565Z,8.20
2023-05-14T22:12:00.555Z,8.20
2023-05-14T22:14:28.737Z,8.20
2023-05-14T22:16:58.342Z,8.20
2023-05-14T22:19:26.850Z,8.20
2023-05-14T22:21:55.179Z,8.10
2023-05-14T22:24:23.247Z,8.10
2023-05-14T22:26:51.378Z,8.10
2023-05-14T22:29:19.328Z,8.00
2023-05-14T22:31:47.372Z,8.00
2023-05-14T22:34:17.091Z,8.10
2023-05-14T22:36:45.090Z,8.10
2023-05-14T22:39:13.645Z,8.00
2023-05-14T22:41:41.769Z,8.00
2023-05-14T22:44:09.714Z,8.00
2023-05-14T22:46:37.821Z,7.90
2023-05-14T22:49:05.813Z,7.90
2023-05-14T22:51:35.141Z,7.90
2023-05-14T22:54:03.105Z,8.00
2023-05-14T22:56:31.096Z,8.00
2023-05-14T22:59:00.220Z,8.00
2023-05-14T23:01:28.420Z,8.00
2023-05-14T23:03:56.564Z,7.90
2023-05-14T23:06:25.463Z,8.00
2023-05-14T23:08:54.875Z,8.00
2023-05-14T23:11:22.926Z,8.00
2023-05-14T23:13:51.248Z,7.90
2023-05-14T23:16:19.297Z,7.90
2023-05-14T23:18:47.377Z,7.90
2023-05-14T23:21:15.769Z,7.90
2023-05-14T23:23:43.766Z,8.00
2023-05-14T23:26:13.132Z,7.90
2023-05-14T23:28:41.196Z,8.10
2023-05-14T23:31:09.124Z,8.10
2023-05-14T23:33:37.144Z,8.00
2023-05-14T23:36:05.362Z,8.00
2023-05-14T23:38:33.443Z,7.90
2023-05-14T23:41:01.495Z,7.80
2023-05-14T23:43:31.470Z,7.90
2023-05-14T23:45:59.582Z,7.90
2023-05-14T23:48:27.730Z,7.80
2023-05-14T23:50:55.721Z,7.80
2023-05-14T23:53:23.764Z,7.90
2023-05-14T23:55:51.964Z,7.80
2023-05-14T23:58:20.042Z,7.80
